aviador You're here:

KLOR Decoded Metar

LOWE AHP/FT. RUC in AL, USA
Report Time2017-11-21 05:58:00
UTC Time2017-11-21 06:15:41
Flight Rules vfr VFR
WindCalm
Visibility9999 m
Phenomena:N/A
Clouds:Few 043 Hf
Overcast 200 Hf
Expected CloudBase > 400 ft AGL from Temp-Dew spread
Ceiling20,000 ft
Temp06°C (ISA -9)
Dew Point05°C (93% RH)
AAT4.9°C
QNH1020 hPa
Density Alt-902 ft
Elevation243 ft
Report Wrong Elevation
Raw Report
KLOR 210558Z AUTO 00000KT 10SM FEW043 OVC200 06/05 A3012 RMK AO2
SLP183 T00550051 10085 20038 401760038 57011=

Extra information for KLOR:More info

Metar Taf Metar & Taf Last 4 Metars F.Rules Stats Wind Profile Meteogram Temp Stats Airport Information Weather charts Add Link Nearby VenuesMetar ALERT Operation Metar Decoded Social comments

AIRNAV info for KLOR